createdAt,value
2022-08-03T00:01:30.087Z,99.90
2022-08-03T00:03:57.134Z,99.90
2022-08-03T00:06:24.130Z,99.90
2022-08-03T00:08:51.062Z,99.90
2022-08-03T00:11:18.108Z,99.90
2022-08-03T00:13:45.109Z,99.90
2022-08-03T00:16:12.402Z,99.90
2022-08-03T00:18:39.683Z,99.90
2022-08-03T00:21:06.724Z,99.90
2022-08-03T00:23:51.238Z,99.90
2022-08-03T00:26:19.015Z,99.90
2022-08-03T00:28:45.998Z,99.90
2022-08-03T00:31:13.302Z,99.90
2022-08-03T00:33:58.056Z,99.90
2022-08-03T00:36:27.247Z,99.90
2022-08-03T00:38:54.330Z,99.90
2022-08-03T00:41:21.494Z,99.90
2022-08-03T00:43:48.558Z,99.90
2022-08-03T00:46:21.005Z,99.90
2022-08-03T00:48:50.080Z,99.90
2022-08-03T00:51:17.513Z,99.90
2022-08-03T00:53:45.644Z,99.90
2022-08-03T00:56:16.415Z,99.90
2022-08-03T00:58:46.668Z,99.90
2022-08-03T01:01:13.872Z,99.90
2022-08-03T01:03:41.250Z,99.90
2022-08-03T01:06:11.650Z,99.90
2022-08-03T01:08:46.617Z,99.90
2022-08-03T01:11:29.213Z,99.90
2022-08-03T01:14:19.230Z,99.90
2022-08-03T01:17:00.085Z,99.90
2022-08-03T01:19:45.970Z,99.90
2022-08-03T01:22:22.986Z,99.90
2022-08-03T01:25:02.210Z,99.90
2022-08-03T01:27:40.594Z,99.90
2022-08-03T01:30:13.875Z,99.90
2022-08-03T01:33:03.492Z,99.90
2022-08-03T01:35:53.445Z,99.90
2022-08-03T01:38:31.935Z,99.90
2022-08-03T01:40:59.089Z,99.90
2022-08-03T01:44:26.703Z,99.90
2022-08-03T01:46:18.096Z,99.90
2022-08-03T01:48:45.778Z,99.90
2022-08-03T01:51:12.856Z,99.90
2022-08-03T01:53:42.893Z,99.90
2022-08-03T01:56:10.074Z,99.90
2022-08-03T02:02:28.935Z,99.90
2022-08-03T02:04:17.878Z,99.90
2022-08-03T02:07:01.177Z,99.90
2022-08-03T02:09:29.542Z,99.90
2022-08-03T02:11:56.587Z,99.90
2022-08-03T02:14:24.020Z,99.90
2022-08-03T02:16:51.152Z,99.90
2022-08-03T02:19:18.140Z,99.90
2022-08-03T02:21:56.803Z,99.90
2022-08-03T02:24:28.602Z,99.90
2022-08-03T02:30:41.317Z,99.90
2022-08-03T02:33:14.584Z,99.90
2022-08-03T02:35:41.595Z,99.90
2022-08-03T02:38:09.427Z,99.90
2022-08-03T02:40:36.460Z,99.90
2022-08-03T02:43:05.668Z,99.90
2022-08-03T02:45:33.149Z,99.90
2022-08-03T02:48:01.228Z,99.90
2022-08-03T02:50:28.224Z,99.90
2022-08-03T02:52:55.403Z,99.90
2022-08-03T02:55:23.250Z,99.90
2022-08-03T02:57:50.319Z,99.90
2022-08-03T03:00:27.350Z,99.90
2022-08-03T03:02:57.449Z,99.90
2022-08-03T03:05:54.774Z,99.90
2022-08-03T03:08:17.640Z,99.90
2022-08-03T03:10:45.224Z,99.90
2022-08-03T03:13:12.209Z,99.90
2022-08-03T03:15:39.573Z,99.90
2022-08-03T03:18:06.950Z,99.90
2022-08-03T03:20:35.857Z,99.90
2022-08-03T03:23:02.883Z,99.90
2022-08-03T03:25:33.265Z,99.90
2022-08-03T03:28:01.006Z,99.90
2022-08-03T03:30:28.112Z,99.90
2022-08-03T03:32:55.113Z,99.90
2022-08-03T03:35:22.034Z,99.90
2022-08-03T03:37:48.934Z,99.90
2022-08-03T03:40:15.926Z,99.90
2022-08-03T03:42:43.307Z,99.90
2022-08-03T03:45:10.717Z,99.90
2022-08-03T03:47:37.770Z,99.90
2022-08-03T03:50:05.686Z,99.90
2022-08-03T03:52:32.943Z,99.90
2022-08-03T03:55:01.363Z,99.90
2022-08-03T03:57:29.604Z,99.90
2022-08-03T03:59:56.744Z,99.90
2022-08-03T04:02:23.898Z,99.90
2022-08-03T04:05:09.220Z,99.90
2022-08-03T04:08:19.515Z,99.90
2022-08-03T04:11:15.537Z,99.90
2022-08-03T04:14:11.410Z,99.90
2022-08-03T04:16:43.585Z,99.90
2022-08-03T04:19:22.946Z,99.90
2022-08-03T04:21:52.137Z,99.90
2022-08-03T04:24:19.176Z,99.90
2022-08-03T04:26:49.623Z,99.90
2022-08-03T04:29:19.684Z,99.90
2022-08-03T04:47:31.570Z,99.90
2022-08-03T04:49:58.577Z,99.90
2022-08-03T04:52:25.958Z,99.90
2022-08-03T04:54:53.074Z,99.90
2022-08-03T04:57:23.174Z,99.90
2022-08-03T05:00:02.152Z,99.90
2022-08-03T05:02:31.295Z,99.90
2022-08-03T05:04:58.482Z,99.90
2022-08-03T05:07:25.592Z,99.90
2022-08-03T05:10:01.498Z,99.90
2022-08-03T05:12:32.772Z,99.90
2022-08-03T05:15:00.642Z,99.90
2022-08-03T05:17:28.636Z,99.90
2022-08-03T05:19:55.911Z,99.90
2022-08-03T05:22:23.202Z,99.90
2022-08-03T05:24:50.220Z,99.90
2022-08-03T05:27:20.281Z,99.90
2022-08-03T05:29:47.734Z,99.90
2022-08-03T05:32:15.188Z,99.90
2022-08-03T05:44:54.295Z,99.90
2022-08-03T05:47:21.962Z,99.90
2022-08-03T05:49:49.235Z,99.90
2022-08-03T05:52:17.919Z,99.90
2022-08-03T05:54:56.151Z,99.90
2022-08-03T05:57:25.917Z,99.90
2022-08-03T05:59:54.597Z,99.90
2022-08-03T06:02:28.361Z,99.90
2022-08-03T06:04:55.743Z,99.90
2022-08-03T06:07:23.011Z,99.90
2022-08-03T06:10:33.952Z,99.90
2022-08-03T06:12:37.239Z,99.90
2022-08-03T06:15:05.079Z,99.90
2022-08-03T06:17:37.145Z,99.90
2022-08-03T06:20:05.949Z,99.90
2022-08-03T06:22:32.890Z,99.90
2022-08-03T06:25:04.072Z,99.90
2022-08-03T06:27:37.067Z,99.90
2022-08-03T06:30:05.619Z,99.90
2022-08-03T06:32:32.646Z,99.90
2022-08-03T06:35:00.180Z,99.90
2022-08-03T06:37:27.362Z,99.90
2022-08-03T06:39:54.499Z,99.90
2022-08-03T06:42:25.079Z,99.90
2022-08-03T06:44:52.373Z,99.90
2022-08-03T06:47:19.393Z,99.90
2022-08-03T06:50:16.672Z,99.90
2022-08-03T06:52:37.744Z,99.90
2022-08-03T06:55:06.528Z,99.90
2022-08-03T06:57:33.636Z,99.90
2022-08-03T07:00:07.774Z,99.90
2022-08-03T07:02:40.062Z,99.90
2022-08-03T07:05:08.200Z,99.90
2022-08-03T07:07:35.139Z,99.90
2022-08-03T07:10:02.562Z,99.90
2022-08-03T07:12:29.929Z,99.90
2022-08-03T07:15:00.747Z,99.90
2022-08-03T07:17:29.946Z,99.90
2022-08-03T07:19:57.483Z,99.90
2022-08-03T07:22:24.526Z,99.90
2022-08-03T07:24:51.516Z,99.90
2022-08-03T07:27:18.610Z,99.90
2022-08-03T07:29:45.660Z,99.90
2022-08-03T07:32:12.631Z,99.90
2022-08-03T07:34:39.616Z,99.90
2022-08-03T07:37:06.867Z,99.90
2022-08-03T07:39:33.806Z,99.90
2022-08-03T07:42:00.760Z,99.90
2022-08-03T07:44:27.809Z,99.90
2022-08-03T07:46:54.897Z,99.90
2022-08-03T07:49:23.773Z,99.90
2022-08-03T07:52:11.096Z,99.90
2022-08-03T07:54:38.393Z,99.90
2022-08-03T07:57:05.505Z,99.90
2022-08-03T07:59:56.921Z,99.90
2022-08-03T08:02:20.137Z,99.90
2022-08-03T08:04:47.112Z,99.90
2022-08-03T08:07:14.112Z,99.90
2022-08-03T08:09:42.636Z,99.90
2022-08-03T08:12:15.274Z,99.90
2022-08-03T08:14:45.952Z,99.90
2022-08-03T08:17:13.608Z,99.90
2022-08-03T08:19:44.577Z,99.90
2022-08-03T08:22:19.740Z,99.90
2022-08-03T08:24:57.195Z,96.80
2022-08-03T08:27:24.172Z,93.70
2022-08-03T08:29:55.313Z,93.80
2022-08-03T08:32:23.664Z,96.20
2022-08-03T08:34:51.163Z,92.80
2022-08-03T08:37:18.191Z,90.40
2022-08-03T08:39:45.162Z,90.50
2022-08-03T08:42:12.308Z,87.60
2022-08-03T08:44:39.461Z,87.50
2022-08-03T08:47:06.513Z,90.10
2022-08-03T08:49:33.565Z,89.30
2022-08-03T08:52:01.344Z,85.30
2022-08-03T08:54:28.626Z,83.10
2022-08-03T08:56:55.620Z,88.80
2022-08-03T08:59:22.592Z,85.90
2022-08-03T09:01:49.577Z,83.10
2022-08-03T09:04:16.563Z,83.10
2022-08-03T09:06:58.617Z,87.10
2022-08-03T09:10:08.189Z,83.20
2022-08-03T09:12:39.187Z,82.90
2022-08-03T09:15:24.210Z,82.60
2022-08-03T09:17:52.137Z,81.30
2022-08-03T09:20:19.733Z,82.30
2022-08-03T09:23:00.559Z,80.40
2022-08-03T09:25:37.273Z,79.30
2022-08-03T09:28:11.285Z,81.60
2022-08-03T09:30:39.704Z,79.40
2022-08-03T09:33:08.313Z,78.20
2022-08-03T09:35:54.970Z,72.50
2022-08-03T09:38:26.463Z,75.10
2022-08-03T09:40:58.869Z,72.30
2022-08-03T09:43:27.855Z,73.90
2022-08-03T09:46:07.524Z,72.70
2022-08-03T09:48:35.634Z,71.50
2022-08-03T09:51:13.152Z,74.40
2022-08-03T09:53:58.915Z,70.60
2022-08-03T09:56:39.178Z,72.80
2022-08-03T09:59:06.163Z,69.80
2022-08-03T10:01:35.066Z,67.10
2022-08-03T10:04:03.847Z,68.30
2022-08-03T10:06:31.799Z,67.20
2022-08-03T10:09:09.558Z,70.00
2022-08-03T10:11:41.353Z,65.50
2022-08-03T10:14:19.488Z,64.10
2022-08-03T10:16:47.181Z,63.70
2022-08-03T10:19:15.320Z,62.40
2022-08-03T10:21:59.958Z,64.20
2022-08-03T10:24:28.404Z,61.40
2022-08-03T10:27:08.369Z,62.40
2022-08-03T10:29:38.875Z,63.90
2022-08-03T10:32:11.324Z,60.90
2022-08-03T10:34:44.275Z,60.80
2022-08-03T10:37:12.654Z,62.90
2022-08-03T10:39:39.678Z,59.90
2022-08-03T10:42:14.724Z,62.70
2022-08-03T10:44:42.072Z,61.70
2022-08-03T10:47:09.850Z,60.80
2022-08-03T10:49:36.844Z,60.20
2022-08-03T10:52:31.974Z,59.40
2022-08-03T10:55:10.955Z,59.50
2022-08-03T10:57:50.134Z,58.00
2022-08-03T11:00:25.136Z,56.40
2022-08-03T11:03:08.959Z,57.50
2022-08-03T11:05:40.030Z,56.60
2022-08-03T11:08:20.775Z,56.60
2022-08-03T11:10:48.399Z,57.70
2022-08-03T11:13:25.381Z,55.20
2022-08-03T11:16:01.729Z,55.90
2022-08-03T11:18:30.842Z,55.20
2022-08-03T11:20:59.334Z,55.40
2022-08-03T11:24:03.048Z,54.30
2022-08-03T11:26:30.338Z,52.60
2022-08-03T11:29:27.546Z,54.10
2022-08-03T11:31:54.477Z,54.80
2022-08-03T11:34:21.431Z,53.10
2022-08-03T11:37:24.051Z,52.10
2022-08-03T11:39:53.435Z,51.80
2022-08-03T11:42:24.001Z,52.40
2022-08-03T11:44:54.881Z,51.40
2022-08-03T11:47:22.651Z,49.80
2022-08-03T11:49:50.828Z,50.40
2022-08-03T11:52:17.995Z,51.20
2022-08-03T11:54:45.459Z,53.00
2022-08-03T11:57:12.510Z,51.80
2022-08-03T11:59:39.509Z,51.70
2022-08-03T12:02:11.154Z,54.60
2022-08-03T12:05:10.592Z,53.40
2022-08-03T12:08:03.617Z,55.80
2022-08-03T12:10:26.114Z,54.10
2022-08-03T12:12:59.942Z,54.40
2022-08-03T12:15:31.301Z,50.90
2022-08-03T12:17:58.473Z,50.00
2022-08-03T12:20:34.525Z,46.70
2022-08-03T12:23:06.033Z,47.30
2022-08-03T12:25:39.235Z,45.50
2022-08-03T12:28:37.291Z,46.60
2022-08-03T12:31:09.586Z,42.60
2022-08-03T12:33:58.949Z,42.90
2022-08-03T12:36:26.466Z,43.10
2022-08-03T12:38:59.200Z,42.80
2022-08-03T12:41:39.570Z,42.00
2022-08-03T12:44:07.677Z,43.10
2022-08-03T12:46:36.581Z,43.60
2022-08-03T12:49:07.595Z,42.70
2022-08-03T12:51:37.018Z,42.40
2022-08-03T12:54:04.274Z,41.90
2022-08-03T12:56:31.222Z,40.30
2022-08-03T12:58:58.265Z,40.80
2022-08-03T13:01:27.889Z,41.70
2022-08-03T13:03:54.983Z,42.40
2022-08-03T13:06:24.610Z,40.10
2022-08-03T13:09:03.359Z,40.10
2022-08-03T13:11:57.694Z,39.90
2022-08-03T13:14:20.022Z,39.10
2022-08-03T13:16:50.767Z,39.00
2022-08-03T13:19:17.760Z,38.20
2022-08-03T13:21:53.596Z,36.60
2022-08-03T13:24:31.458Z,36.60
2022-08-03T13:26:59.470Z,38.40
2022-08-03T13:29:26.437Z,36.30
2022-08-03T13:31:53.370Z,36.00
2022-08-03T13:34:23.588Z,37.80
2022-08-03T13:37:09.383Z,37.90
2022-08-03T13:39:57.725Z,37.10
2022-08-03T13:42:24.789Z,38.20
2022-08-03T13:44:51.743Z,36.60
2022-08-03T13:47:19.998Z,35.80
2022-08-03T13:50:00.227Z,36.50
2022-08-03T13:52:35.742Z,36.20
2022-08-03T13:55:04.963Z,37.30
2022-08-03T13:58:03.395Z,36.40
2022-08-03T14:00:28.213Z,36.90
2022-08-03T14:03:13.848Z,35.50
2022-08-03T14:05:42.541Z,36.30
2022-08-03T14:08:11.098Z,35.40
2022-08-03T14:10:39.216Z,36.70
2022-08-03T14:13:06.392Z,35.70
2022-08-03T14:15:37.879Z,34.00
2022-08-03T14:18:06.688Z,35.40
2022-08-03T14:47:16.963Z,37.90
2022-08-03T14:50:34.298Z,37.10
2022-08-03T14:52:31.843Z,37.20
2022-08-03T14:54:59.539Z,36.40
2022-08-03T14:57:26.821Z,36.80
2022-08-03T15:14:55.148Z,37.50
2022-08-03T15:17:22.536Z,37.10
2022-08-03T15:20:03.404Z,39.20
2022-08-03T15:22:40.459Z,38.10
2022-08-03T16:08:03.690Z,45.50
2022-08-03T16:10:32.832Z,45.90
2022-08-03T16:13:00.534Z,46.50
2022-08-03T16:15:27.738Z,46.50
2022-08-03T16:17:54.855Z,46.20
2022-08-03T16:20:31.073Z,45.50
2022-08-03T16:23:07.031Z,47.00
2022-08-03T16:25:41.023Z,47.50
2022-08-03T16:28:13.590Z,48.40
2022-08-03T16:30:42.252Z,47.50
2022-08-03T16:33:09.345Z,47.50
2022-08-03T16:35:36.499Z,50.50
2022-08-03T16:38:09.232Z,52.20
2022-08-03T16:40:37.168Z,50.60
2022-08-03T16:43:18.774Z,50.80
2022-08-03T16:45:46.628Z,51.50
2022-08-03T16:48:14.566Z,51.70
2022-08-03T16:50:41.788Z,52.70
2022-08-03T16:53:09.686Z,53.00
2022-08-03T16:55:48.728Z,55.10
2022-08-03T16:58:34.725Z,56.10
2022-08-03T17:01:10.837Z,55.90
2022-08-03T17:04:01.766Z,54.80
2022-08-03T17:06:36.828Z,56.00
2022-08-03T17:09:15.288Z,57.20
2022-08-03T17:11:47.341Z,58.20
2022-08-03T17:14:16.048Z,57.50
2022-08-03T17:16:52.979Z,57.60
2022-08-03T17:19:23.258Z,58.90
2022-08-03T17:22:10.905Z,59.30
2022-08-03T17:24:40.908Z,58.70
2022-08-03T17:28:42.025Z,60.40
2022-08-03T17:30:44.224Z,63.40
2022-08-03T17:33:20.621Z,65.50
2022-08-03T17:35:47.990Z,70.40
2022-08-03T17:38:22.391Z,75.80
2022-08-03T17:40:51.887Z,80.60
2022-08-03T17:44:13.884Z,90.00
2022-08-03T17:46:12.280Z,85.20
2022-08-03T17:48:41.134Z,88.20
2022-08-03T17:51:17.248Z,89.90
2022-08-03T17:53:49.958Z,92.10
2022-08-03T17:56:44.313Z,90.40
2022-08-03T17:59:52.240Z,96.10
2022-08-03T18:02:51.507Z,98.60
2022-08-03T18:05:22.002Z,99.90
2022-08-03T18:07:59.162Z,99.90
2022-08-03T18:10:28.779Z,99.90
2022-08-03T18:13:03.563Z,99.10
2022-08-03T18:15:47.427Z,98.50
2022-08-03T18:18:16.499Z,97.00
2022-08-03T18:20:56.768Z,99.50
2022-08-03T18:23:37.282Z,99.90
2022-08-03T18:26:07.019Z,99.90
2022-08-03T18:28:35.841Z,99.90
2022-08-03T18:31:05.699Z,99.90
2022-08-03T18:34:19.156Z,99.90
2022-08-03T18:36:30.454Z,99.90
2022-08-03T18:45:56.441Z,99.90
2022-08-03T18:48:16.407Z,99.90
2022-08-03T18:50:50.044Z,99.90
2022-08-03T18:54:02.631Z,99.90
2022-08-03T18:59:54.891Z,99.90
2022-08-03T19:02:36.346Z,99.90
2022-08-03T19:05:08.247Z,99.90
2022-08-03T19:07:36.249Z,99.90
2022-08-03T19:10:10.790Z,99.90
2022-08-03T19:12:48.240Z,99.90
2022-08-03T19:15:15.586Z,99.90
2022-08-03T19:17:52.977Z,99.90
2022-08-03T19:20:25.120Z,99.90
2022-08-03T19:22:52.799Z,99.90
2022-08-03T19:25:20.211Z,99.90
2022-08-03T19:28:03.134Z,99.90
2022-08-03T19:30:39.116Z,99.90
2022-08-03T19:33:11.401Z,99.90
2022-08-03T19:35:51.918Z,99.90
2022-08-03T19:38:27.418Z,99.90
2022-08-03T19:40:58.153Z,99.90
2022-08-03T19:43:33.227Z,99.90
2022-08-03T19:46:16.960Z,99.90
2022-08-03T19:48:48.200Z,99.90
2022-08-03T19:51:16.240Z,99.90
2022-08-03T19:53:45.214Z,99.90
2022-08-03T19:56:13.142Z,99.90
2022-08-03T19:58:40.535Z,99.90
2022-08-03T20:01:19.277Z,99.90
2022-08-03T20:03:48.281Z,99.90
2022-08-03T20:06:21.347Z,99.90
2022-08-03T20:08:51.727Z,99.90
2022-08-03T20:11:19.336Z,99.90
2022-08-03T20:13:49.241Z,99.90
2022-08-03T20:16:16.293Z,99.90
2022-08-03T20:18:43.285Z,99.90
2022-08-03T20:21:15.065Z,99.90
2022-08-03T20:24:01.966Z,99.90
2022-08-03T20:26:30.525Z,99.90
2022-08-03T20:29:09.136Z,99.90
2022-08-03T20:31:37.802Z,99.90
2022-08-03T20:34:05.743Z,99.90
2022-08-03T20:36:33.915Z,99.90
2022-08-03T20:39:01.108Z,99.90
2022-08-03T20:41:35.311Z,99.90
2022-08-03T20:44:02.326Z,99.90
2022-08-03T20:46:38.546Z,99.90
2022-08-03T20:49:23.878Z,99.90
2022-08-03T20:51:53.331Z,99.90
2022-08-03T20:54:31.057Z,99.90
2022-08-03T20:57:00.105Z,99.90
2022-08-03T20:59:46.792Z,99.90
2022-08-03T21:02:19.685Z,99.90
2022-08-03T21:04:56.456Z,99.90
2022-08-03T21:07:23.480Z,99.90
2022-08-03T21:09:57.153Z,99.90
2022-08-03T21:12:29.620Z,99.90
2022-08-03T21:15:02.222Z,99.90
2022-08-03T21:17:41.658Z,99.90
2022-08-03T21:20:10.589Z,99.90
2022-08-03T21:22:38.255Z,99.90
2022-08-03T21:25:07.496Z,99.90
2022-08-03T21:27:34.730Z,99.90
2022-08-03T21:30:08.773Z,99.90
2022-08-03T21:32:36.491Z,99.90
2022-08-03T21:35:04.023Z,99.90
2022-08-03T21:37:31.367Z,99.90
2022-08-03T21:39:58.490Z,99.90
2022-08-03T21:42:25.753Z,99.90
2022-08-03T21:44:53.278Z,99.90
2022-08-03T21:47:22.712Z,99.90
2022-08-03T21:50:06.628Z,99.90
2022-08-03T21:52:42.172Z,99.90
2022-08-03T21:55:20.472Z,99.90
2022-08-03T21:57:51.558Z,99.90
2022-08-03T22:00:19.644Z,99.90
2022-08-03T22:02:54.827Z,99.90
2022-08-03T22:05:43.007Z,99.90
2022-08-03T22:08:11.361Z,99.90
2022-08-03T22:10:38.559Z,99.90
2022-08-03T22:13:06.006Z,99.90
2022-08-03T22:15:33.077Z,99.90
2022-08-03T22:18:04.057Z,99.90
2022-08-03T22:20:31.181Z,99.90
2022-08-03T22:23:01.607Z,99.90
2022-08-03T22:25:35.347Z,99.90
2022-08-03T22:28:05.411Z,99.90
2022-08-03T22:30:33.456Z,99.90
2022-08-03T22:33:01.271Z,99.90
2022-08-03T22:35:28.784Z,99.90
2022-08-03T22:37:57.459Z,99.90
2022-08-03T22:40:25.158Z,99.90
2022-08-03T22:42:53.057Z,99.90
2022-08-03T22:46:07.189Z,99.90
2022-08-03T22:48:08.265Z,99.90
2022-08-03T22:50:38.600Z,99.90
2022-08-03T22:53:05.627Z,99.90
2022-08-03T22:55:32.802Z,99.90
2022-08-03T22:57:59.802Z,99.90
2022-08-03T23:00:26.976Z,99.90
2022-08-03T23:02:54.453Z,99.90
2022-08-03T23:06:01.276Z,99.90
2022-08-03T23:08:15.372Z,99.90
2022-08-03T23:10:47.027Z,99.90
2022-08-03T23:13:16.655Z,99.90
2022-08-03T23:15:43.943Z,99.90
2022-08-03T23:18:10.994Z,99.90
2022-08-03T23:20:38.622Z,99.90
2022-08-03T23:23:05.811Z,99.90
2022-08-03T23:25:39.493Z,99.90
2022-08-03T23:28:09.593Z,99.90
2022-08-03T23:30:38.248Z,99.90
2022-08-03T23:33:05.307Z,99.90
2022-08-03T23:36:18.706Z,99.90
2022-08-03T23:38:38.431Z,99.90
2022-08-03T23:41:06.047Z,99.90
2022-08-03T23:43:50.888Z,99.90
2022-08-03T23:46:19.997Z,99.90
2022-08-03T23:48:48.276Z,99.90
2022-08-03T23:51:24.085Z,99.90
2022-08-03T23:53:57.641Z,99.90
2022-08-03T23:56:31.387Z,99.90
2022-08-03T23:59:14.691Z,99.90
